createdAt,value
2019-02-12T00:00:17.647Z,5.20
2019-02-12T00:01:22.180Z,5.20
2019-02-12T00:02:27.103Z,5.20
2019-02-12T00:03:31.578Z,5.20
2019-02-12T00:04:36.073Z,5.20
2019-02-12T00:05:40.554Z,5.20
2019-02-12T00:06:45.040Z,5.20
2019-02-12T00:07:49.529Z,5.20
2019-02-12T00:08:54.025Z,5.20
2019-02-12T00:09:58.466Z,5.10
2019-02-12T00:11:02.965Z,5.10
2019-02-12T00:12:07.647Z,5.10
2019-02-12T00:13:12.097Z,5.10
2019-02-12T00:14:16.647Z,5.10
2019-02-12T00:15:21.146Z,5.10
2019-02-12T00:16:25.688Z,5.10
2019-02-12T00:17:30.165Z,5.10
2019-02-12T00:18:34.674Z,5.10
2019-02-12T00:19:39.337Z,5.10
2019-02-12T00:20:43.932Z,5.20
2019-02-12T00:21:48.515Z,5.20
2019-02-12T00:22:53.537Z,5.20
2019-02-12T00:23:58.087Z,5.20
2019-02-12T00:25:02.563Z,5.20
2019-02-12T00:26:07.053Z,5.20
2019-02-12T00:27:11.511Z,5.20
2019-02-12T00:28:15.964Z,5.20
2019-02-12T00:29:20.473Z,5.20
2019-02-12T00:30:24.953Z,5.20
2019-02-12T00:31:29.729Z,5.20
2019-02-12T00:32:34.197Z,5.10
2019-02-12T00:33:38.868Z,5.10
2019-02-12T00:34:43.373Z,5.20
2019-02-12T00:35:47.844Z,5.20
2019-02-12T00:36:52.318Z,5.20
2019-02-12T00:37:57.270Z,5.10
2019-02-12T00:39:01.803Z,5.20
2019-02-12T00:40:08.856Z,5.20
2019-02-12T00:41:13.311Z,5.10
2019-02-12T00:42:17.779Z,5.20
2019-02-12T00:43:22.260Z,5.20
2019-02-12T00:44:26.736Z,5.20
2019-02-12T00:45:31.222Z,5.20
2019-02-12T00:46:35.684Z,5.20
2019-02-12T00:47:40.155Z,5.20
2019-02-12T00:48:44.643Z,5.20
2019-02-12T00:49:49.105Z,5.20
2019-02-12T00:50:53.591Z,5.20
2019-02-12T00:51:58.033Z,5.20
2019-02-12T00:53:02.563Z,5.20
2019-02-12T00:54:07.366Z,5.20
2019-02-12T00:55:11.921Z,5.20
2019-02-12T00:56:16.411Z,5.20
2019-02-12T00:57:20.875Z,5.20
2019-02-12T00:58:25.376Z,5.20
2019-02-12T00:59:29.841Z,5.20
2019-02-12T01:00:34.308Z,5.20
2019-02-12T01:01:38.803Z,5.20
2019-02-12T01:02:43.343Z,5.20
2019-02-12T01:03:47.795Z,5.20
2019-02-12T01:04:52.289Z,5.20
2019-02-12T01:05:56.752Z,5.10
2019-02-12T01:07:01.283Z,5.20
2019-02-12T01:08:05.762Z,5.20
2019-02-12T01:09:10.294Z,5.10
2019-02-12T01:10:14.783Z,5.20
2019-02-12T01:11:19.265Z,5.10
2019-02-12T01:12:23.736Z,5.10
2019-02-12T01:13:28.221Z,5.10
2019-02-12T01:14:32.701Z,5.10
2019-02-12T01:15:37.340Z,5.10
2019-02-12T01:16:41.871Z,5.10
2019-02-12T01:17:46.350Z,5.10
2019-02-12T01:18:51.116Z,5.10
2019-02-12T01:19:55.569Z,5.10
2019-02-12T01:21:00.080Z,5.10
2019-02-12T01:22:04.570Z,5.10
2019-02-12T01:23:09.021Z,5.10
2019-02-12T01:24:13.507Z,5.10
2019-02-12T01:25:17.954Z,5.10
2019-02-12T01:26:22.420Z,5.10
2019-02-12T01:27:26.905Z,5.10
2019-02-12T01:28:31.360Z,5.10
2019-02-12T01:29:35.825Z,5.10
2019-02-12T01:30:40.312Z,5.10
2019-02-12T01:31:44.889Z,5.00
2019-02-12T01:32:49.343Z,5.10
2019-02-12T01:33:53.806Z,5.10
2019-02-12T01:34:58.283Z,5.00
2019-02-12T01:36:02.742Z,5.00
2019-02-12T01:37:07.234Z,5.00
2019-02-12T01:38:11.746Z,5.00
2019-02-12T01:39:16.227Z,5.00
2019-02-12T01:40:20.730Z,5.00
2019-02-12T01:41:25.226Z,5.00
2019-02-12T01:42:29.743Z,5.00
2019-02-12T01:43:34.257Z,5.00
2019-02-12T01:44:38.727Z,5.00
2019-02-12T01:45:43.204Z,5.00
2019-02-12T01:46:47.657Z,5.00
2019-02-12T01:47:52.131Z,5.00
2019-02-12T01:48:56.672Z,5.00
2019-02-12T01:50:01.156Z,5.00
2019-02-12T01:51:05.706Z,5.10
2019-02-12T01:52:10.263Z,5.00
2019-02-12T01:53:14.766Z,5.10
2019-02-12T01:54:19.245Z,5.10
2019-02-12T01:55:23.710Z,5.10
2019-02-12T01:56:28.194Z,5.10
2019-02-12T01:57:32.723Z,5.10
2019-02-12T01:58:37.213Z,5.10
2019-02-12T01:59:41.663Z,5.20
2019-02-12T02:00:46.195Z,5.10
2019-02-12T02:01:50.690Z,5.20
2019-02-12T02:02:55.209Z,5.20
2019-02-12T02:03:59.713Z,5.20
2019-02-12T02:05:05.942Z,5.20
2019-02-12T02:06:10.393Z,5.20
2019-02-12T02:07:15.674Z,5.20
2019-02-12T02:08:20.152Z,5.20
2019-02-12T02:09:24.647Z,5.30
2019-02-12T02:10:29.167Z,5.30
2019-02-12T02:11:33.745Z,5.30
2019-02-12T02:12:38.283Z,5.30
2019-02-12T02:13:42.763Z,5.30
2019-02-12T02:14:47.262Z,5.30
2019-02-12T02:15:51.777Z,5.30
2019-02-12T02:16:56.239Z,5.40
2019-02-12T02:18:00.725Z,5.30
2019-02-12T02:19:05.243Z,5.30
2019-02-12T02:20:14.266Z,5.40
2019-02-12T02:21:18.783Z,5.30
2019-02-12T02:22:23.279Z,5.30
2019-02-12T02:23:27.735Z,5.40
2019-02-12T02:24:32.197Z,5.40
2019-02-12T02:25:36.672Z,5.40
2019-02-12T02:26:41.135Z,5.40
2019-02-12T02:27:45.580Z,5.40
2019-02-12T02:28:50.130Z,5.40
2019-02-12T02:29:54.606Z,5.40
2019-02-12T02:30:59.055Z,5.40
2019-02-12T02:32:03.531Z,5.40
2019-02-12T02:33:08.072Z,5.40
2019-02-12T02:34:12.632Z,5.40
2019-02-12T02:35:17.225Z,5.40
2019-02-12T02:36:21.701Z,5.30
2019-02-12T02:37:26.174Z,5.30
2019-02-12T02:38:30.693Z,5.30
2019-02-12T02:39:35.176Z,5.30
2019-02-12T02:40:39.676Z,5.40
2019-02-12T02:41:44.195Z,5.40
2019-02-12T02:42:48.678Z,5.40
2019-02-12T02:43:53.144Z,5.40
2019-02-12T02:44:57.620Z,5.40
2019-02-12T02:46:02.217Z,5.40
2019-02-12T02:47:06.678Z,5.40
2019-02-12T02:48:11.176Z,5.40
2019-02-12T02:49:15.663Z,5.40
2019-02-12T02:50:20.123Z,5.40
2019-02-12T02:51:24.705Z,5.30
2019-02-12T02:52:29.178Z,5.30
2019-02-12T02:53:33.637Z,5.40
2019-02-12T02:54:38.116Z,5.30
2019-02-12T02:55:42.598Z,5.30
2019-02-12T02:56:47.095Z,5.30
2019-02-12T02:57:51.533Z,5.30
2019-02-12T02:58:56.001Z,5.30
2019-02-12T03:00:00.527Z,5.30
2019-02-12T03:01:05.022Z,5.30
2019-02-12T03:02:09.672Z,5.30
2019-02-12T03:03:14.209Z,5.30
2019-02-12T03:04:18.716Z,5.30
2019-02-12T03:05:23.170Z,5.30
2019-02-12T03:06:27.650Z,5.30
2019-02-12T03:07:32.202Z,5.30
2019-02-12T03:08:36.656Z,5.30
2019-02-12T03:09:41.118Z,5.30
2019-02-12T03:10:45.587Z,5.30
2019-02-12T03:11:50.052Z,5.30
2019-02-12T03:12:54.532Z,5.30
2019-02-12T03:13:59.026Z,5.30
2019-02-12T03:15:03.660Z,5.30
2019-02-12T03:16:08.124Z,5.30
2019-02-12T03:17:12.653Z,5.30
2019-02-12T03:18:17.163Z,5.30
2019-02-12T03:19:21.633Z,5.30
2019-02-12T03:20:26.099Z,5.30
2019-02-12T03:21:30.575Z,5.30
2019-02-12T03:22:35.343Z,5.30
2019-02-12T03:23:39.810Z,5.30
2019-02-12T03:24:44.274Z,5.30
2019-02-12T03:25:48.752Z,5.30
2019-02-12T03:26:53.232Z,5.40
2019-02-12T03:27:57.704Z,5.40
2019-02-12T03:29:02.187Z,5.40
2019-02-12T03:30:09.675Z,5.40
2019-02-12T03:31:14.407Z,5.40
2019-02-12T03:32:18.900Z,5.40
2019-02-12T03:33:23.388Z,5.40
2019-02-12T03:34:27.935Z,5.40
2019-02-12T03:35:32.385Z,5.40
2019-02-12T03:36:36.898Z,5.40
2019-02-12T03:37:41.347Z,5.40
2019-02-12T03:38:45.817Z,5.40
2019-02-12T03:39:50.270Z,5.40
2019-02-12T03:40:54.728Z,5.40
2019-02-12T03:41:59.281Z,5.40
2019-02-12T03:43:03.928Z,5.40
2019-02-12T03:44:08.387Z,5.40
2019-02-12T03:45:13.713Z,5.40
2019-02-12T03:46:18.279Z,5.40
2019-02-12T03:47:22.753Z,5.40
2019-02-12T03:48:27.218Z,5.40
2019-02-12T03:49:31.670Z,5.40
2019-02-12T03:50:36.466Z,5.40
2019-02-12T03:51:40.941Z,5.40
2019-02-12T03:52:45.432Z,5.40
2019-02-12T03:53:49.905Z,5.40
2019-02-12T03:54:54.352Z,5.40
2019-02-12T03:55:58.819Z,5.40
2019-02-12T03:57:03.281Z,5.40
2019-02-12T03:58:07.998Z,5.40
2019-02-12T03:59:12.538Z,5.40
2019-02-12T04:00:17.024Z,5.40
2019-02-12T04:01:21.560Z,5.40
2019-02-12T04:02:26.041Z,5.40
2019-02-12T04:03:30.871Z,5.40
2019-02-12T04:04:35.458Z,5.40
2019-02-12T04:05:39.954Z,5.40
2019-02-12T04:06:44.477Z,5.40
2019-02-12T04:07:49.013Z,5.40
2019-02-12T04:08:53.480Z,5.40
2019-02-12T04:09:57.947Z,5.40
2019-02-12T04:11:02.410Z,5.40
2019-02-12T04:12:06.873Z,5.40
2019-02-12T04:13:11.357Z,5.40
2019-02-12T04:14:15.807Z,5.40
2019-02-12T04:15:20.295Z,5.40
2019-02-12T04:16:24.793Z,5.40
2019-02-12T04:17:29.233Z,5.40
2019-02-12T04:18:33.725Z,5.40
2019-02-12T04:19:38.256Z,5.40
2019-02-12T04:20:42.730Z,5.40
2019-02-12T04:21:47.211Z,5.40
2019-02-12T04:22:51.676Z,5.40
2019-02-12T04:23:56.142Z,5.40
2019-02-12T04:25:00.758Z,5.40
2019-02-12T04:26:05.199Z,5.40
2019-02-12T04:27:10.129Z,5.40
2019-02-12T04:28:15.958Z,5.40
2019-02-12T04:29:20.672Z,5.40
2019-02-12T04:30:25.166Z,5.40
2019-02-12T04:31:29.667Z,5.40
2019-02-12T04:32:34.139Z,5.40
2019-02-12T04:33:38.592Z,5.40
2019-02-12T04:34:43.054Z,5.40
2019-02-12T04:35:47.548Z,5.40
2019-02-12T04:36:52.007Z,5.40
2019-02-12T04:37:56.488Z,5.40
2019-02-12T04:39:01.009Z,5.40
2019-02-12T04:40:08.443Z,5.40
2019-02-12T04:41:12.953Z,5.50
2019-02-12T04:42:17.505Z,5.50
2019-02-12T04:43:21.968Z,5.40
2019-02-12T04:44:26.446Z,5.50
2019-02-12T04:45:30.983Z,5.40
2019-02-12T04:46:35.465Z,5.40
2019-02-12T04:47:39.939Z,5.40
2019-02-12T04:48:44.476Z,5.50
2019-02-12T04:49:48.939Z,5.40
2019-02-12T04:50:53.419Z,5.40
2019-02-12T04:51:57.901Z,5.50
2019-02-12T04:53:02.363Z,5.40
2019-02-12T04:54:06.853Z,5.40
2019-02-12T04:55:12.438Z,5.40
2019-02-12T04:56:16.918Z,5.50
2019-02-12T04:57:21.437Z,5.40
2019-02-12T04:58:25.906Z,5.40
2019-02-12T04:59:30.443Z,5.40
2019-02-12T05:00:34.940Z,5.40
2019-02-12T05:01:39.423Z,5.40
2019-02-12T05:02:43.965Z,5.40
2019-02-12T05:03:48.498Z,5.40
2019-02-12T05:04:52.973Z,5.40
2019-02-12T05:05:57.503Z,5.40
2019-02-12T05:07:02.039Z,5.40
2019-02-12T05:08:06.578Z,5.40
2019-02-12T05:09:16.293Z,5.40
2019-02-12T05:10:29.930Z,5.40
2019-02-12T05:11:34.406Z,5.40
2019-02-12T05:12:38.878Z,5.40
2019-02-12T05:13:43.372Z,5.30
2019-02-12T05:14:47.843Z,5.30
2019-02-12T05:15:52.315Z,5.30
2019-02-12T05:16:56.783Z,5.30
2019-02-12T05:18:01.261Z,5.30
2019-02-12T05:19:05.821Z,5.30
2019-02-12T05:20:14.319Z,5.30
2019-02-12T05:21:18.780Z,5.30
2019-02-12T05:22:23.239Z,5.30
2019-02-12T05:23:27.730Z,5.30
2019-02-12T05:24:32.182Z,5.30
2019-02-12T05:25:36.774Z,5.30
2019-02-12T05:26:41.311Z,5.30
2019-02-12T05:27:45.878Z,5.30
2019-02-12T05:28:50.448Z,5.30
2019-02-12T05:29:54.904Z,5.30
2019-02-12T05:30:59.434Z,5.30
2019-02-12T05:32:03.951Z,5.30
2019-02-12T05:33:08.427Z,5.30
2019-02-12T05:34:12.893Z,5.30
2019-02-12T05:35:17.451Z,5.30
2019-02-12T05:36:21.982Z,5.30
2019-02-12T05:37:26.456Z,5.30
2019-02-12T05:38:30.924Z,5.30
2019-02-12T05:39:35.391Z,5.30
2019-02-12T05:40:39.866Z,5.30
2019-02-12T05:41:44.347Z,5.30
2019-02-12T05:42:48.833Z,5.30
2019-02-12T05:43:53.310Z,5.30
2019-02-12T05:44:57.843Z,5.30
2019-02-12T05:46:02.325Z,5.30
2019-02-12T05:47:07.066Z,5.40
2019-02-12T05:48:11.671Z,5.40
2019-02-12T05:49:16.128Z,5.40
2019-02-12T05:50:20.590Z,5.40
2019-02-12T05:51:25.062Z,5.40
2019-02-12T05:52:29.531Z,5.30
2019-02-12T05:53:34.056Z,5.40
2019-02-12T05:54:38.531Z,5.40
2019-02-12T05:55:42.989Z,5.40
2019-02-12T05:56:47.454Z,5.30
2019-02-12T05:57:51.898Z,5.40
2019-02-12T05:58:56.378Z,5.40
2019-02-12T06:00:00.896Z,5.30
2019-02-12T06:01:05.373Z,5.40
2019-02-12T06:02:09.821Z,5.30
2019-02-12T06:03:14.279Z,5.30
2019-02-12T06:04:19.656Z,5.30
2019-02-12T06:05:26.432Z,5.30
2019-02-12T06:06:30.906Z,5.30
2019-02-12T06:07:35.444Z,5.30
2019-02-12T06:08:40.014Z,5.30
2019-02-12T06:09:44.493Z,5.40
2019-02-12T06:10:48.948Z,5.40
2019-02-12T06:11:53.426Z,5.30
2019-02-12T06:12:57.905Z,5.30
2019-02-12T06:14:02.333Z,5.30
2019-02-12T06:15:07.394Z,5.30
2019-02-12T06:16:11.853Z,5.30
2019-02-12T06:17:16.365Z,5.30
2019-02-12T06:18:20.949Z,5.30
2019-02-12T06:19:25.441Z,5.30
2019-02-12T06:20:29.932Z,5.30
2019-02-12T06:21:34.391Z,5.30
2019-02-12T06:22:38.845Z,5.30
2019-02-12T06:23:43.317Z,5.30
2019-02-12T06:24:47.819Z,5.30
2019-02-12T06:25:52.338Z,5.30
2019-02-12T06:26:58.425Z,5.20
2019-02-12T06:28:02.934Z,5.20
2019-02-12T06:29:07.391Z,5.20
2019-02-12T06:30:11.858Z,5.20
2019-02-12T06:31:16.431Z,5.20
2019-02-12T06:32:20.958Z,5.20
2019-02-12T06:33:25.475Z,5.20
2019-02-12T06:34:30.249Z,5.20
2019-02-12T06:35:34.718Z,5.20
2019-02-12T06:36:39.199Z,5.20
2019-02-12T06:37:43.664Z,5.20
2019-02-12T06:38:48.162Z,5.20
2019-02-12T06:39:52.709Z,5.20
2019-02-12T06:40:57.193Z,5.20
2019-02-12T06:42:01.753Z,5.20
2019-02-12T06:43:06.241Z,5.20
2019-02-12T06:44:10.710Z,5.20
2019-02-12T06:45:15.234Z,5.20
2019-02-12T06:46:19.736Z,5.20
2019-02-12T06:47:24.348Z,5.20
2019-02-12T06:48:28.823Z,5.20
2019-02-12T06:49:33.284Z,5.20
2019-02-12T06:50:37.781Z,5.30
2019-02-12T06:51:42.237Z,5.30
2019-02-12T06:52:46.736Z,5.30
2019-02-12T06:53:51.212Z,5.30
2019-02-12T06:54:56.136Z,5.30
2019-02-12T06:56:00.604Z,5.30
2019-02-12T06:57:05.100Z,5.30
2019-02-12T06:58:09.667Z,5.30
2019-02-12T06:59:14.142Z,5.30
2019-02-12T07:00:18.633Z,5.30
2019-02-12T07:01:23.112Z,5.30
2019-02-12T07:02:56.335Z,5.30
2019-02-12T07:04:00.823Z,5.30
2019-02-12T07:05:08.314Z,5.30
2019-02-12T07:06:32.468Z,5.30
2019-02-12T07:08:08.239Z,5.30
2019-02-12T07:09:27.089Z,5.30
2019-02-12T07:10:31.712Z,5.30
2019-02-12T07:11:58.929Z,5.30
2019-02-12T07:13:18.222Z,5.30
2019-02-12T07:14:37.412Z,5.20
2019-02-12T07:15:41.933Z,5.20
2019-02-12T07:17:09.158Z,5.20
2019-02-12T07:18:31.938Z,5.20
2019-02-12T07:19:42.353Z,5.20
2019-02-12T07:21:08.380Z,5.20
2019-02-12T07:22:32.376Z,5.20
2019-02-12T07:23:45.188Z,5.20
2019-02-12T07:25:04.833Z,5.20
2019-02-12T07:26:26.983Z,5.20
2019-02-12T07:27:46.447Z,5.20
2019-02-12T07:28:57.013Z,5.20
2019-02-12T07:30:15.929Z,5.20
2019-02-12T07:31:34.577Z,5.20
2019-02-12T07:32:44.303Z,5.20
2019-02-12T07:34:10.021Z,5.20
2019-02-12T07:35:35.602Z,5.20
2019-02-12T07:36:49.898Z,5.20
2019-02-12T07:38:16.862Z,5.20
2019-02-12T07:39:54.302Z,5.20
2019-02-12T07:41:23.972Z,5.20
2019-02-12T07:42:31.521Z,5.20
2019-02-12T07:43:41.669Z,5.20
2019-02-12T07:45:07.831Z,5.20
2019-02-12T07:46:33.016Z,5.10
2019-02-12T07:47:42.941Z,5.10
2019-02-12T07:48:53.345Z,5.10
2019-02-12T07:50:18.795Z,5.10
2019-02-12T07:51:26.352Z,5.10
2019-02-12T07:52:39.175Z,5.10
2019-02-12T07:54:01.387Z,5.10
2019-02-12T07:55:33.197Z,5.20
2019-02-12T07:56:55.916Z,5.10
2019-02-12T07:58:18.607Z,5.10
2019-02-12T07:59:41.318Z,5.10
2019-02-12T08:01:06.464Z,5.10
2019-02-12T08:02:33.869Z,5.10
2019-02-12T08:03:41.524Z,5.10
2019-02-12T08:05:23.734Z,5.10
2019-02-12T08:06:53.847Z,5.10
2019-02-12T08:08:30.091Z,5.10
2019-02-12T08:09:53.957Z,5.10
2019-02-12T08:11:13.255Z,5.10
2019-02-12T08:12:29.543Z,5.10
2019-02-12T08:13:51.898Z,5.10
2019-02-12T08:15:05.383Z,5.10
2019-02-12T08:16:15.587Z,5.10
2019-02-12T08:17:23.179Z,5.10
2019-02-12T08:18:30.736Z,5.10
2019-02-12T08:19:41.251Z,5.10
2019-02-12T08:20:54.587Z,5.10
2019-02-12T08:22:17.331Z,5.10
2019-02-12T08:23:27.760Z,5.10
2019-02-12T08:24:35.310Z,5.10
2019-02-12T08:26:02.249Z,5.10
2019-02-12T08:27:15.894Z,5.10
2019-02-12T08:28:43.165Z,5.10
2019-02-12T08:29:56.234Z,5.10
2019-02-12T08:31:12.978Z,5.10
2019-02-12T08:32:20.601Z,5.10
2019-02-12T08:33:46.343Z,5.10
2019-02-12T08:35:09.066Z,5.10
2019-02-12T08:36:21.232Z,5.10
2019-02-12T08:37:47.358Z,5.10
2019-02-12T08:39:10.496Z,5.10
2019-02-12T08:40:28.510Z,5.10
2019-02-12T08:41:58.418Z,5.20
2019-02-12T08:43:30.385Z,5.20
2019-02-12T08:45:00.908Z,5.20
2019-02-12T08:46:25.078Z,5.30
2019-02-12T08:47:57.109Z,5.30
2019-02-12T08:49:07.657Z,5.30
2019-02-12T08:50:27.002Z,5.40
2019-02-12T08:51:46.647Z,5.40
2019-02-12T08:53:00.408Z,5.40
2019-02-12T08:54:37.059Z,5.40
2019-02-12T08:56:02.840Z,5.50
2019-02-12T08:57:16.525Z,5.50
2019-02-12T08:58:26.896Z,5.50
2019-02-12T08:59:43.362Z,5.50
2019-02-12T09:01:03.224Z,5.50
2019-02-12T09:02:33.235Z,5.50
2019-02-12T09:04:05.342Z,5.50
2019-02-12T09:05:16.018Z,5.60
2019-02-12T09:06:42.927Z,5.60
2019-02-12T09:08:02.063Z,5.60
2019-02-12T09:09:29.241Z,5.60
2019-02-12T09:10:39.272Z,5.60
2019-02-12T09:12:13.611Z,5.60
2019-02-12T09:13:26.830Z,5.60
2019-02-12T09:14:37.045Z,5.70
2019-02-12T09:15:44.589Z,5.70
2019-02-12T09:17:07.313Z,5.70
2019-02-12T09:18:14.874Z,5.70
2019-02-12T09:19:24.987Z,5.70
2019-02-12T09:20:41.715Z,5.70
2019-02-12T09:22:05.773Z,5.70
2019-02-12T09:23:29.789Z,5.70
2019-02-12T09:24:52.195Z,5.70
2019-02-12T09:25:59.717Z,5.70
2019-02-12T09:27:25.447Z,5.70
2019-02-12T09:28:38.526Z,5.70
2019-02-12T09:30:01.057Z,5.70
2019-02-12T09:31:27.822Z,5.70
2019-02-12T09:32:59.031Z,5.70
2019-02-12T09:34:09.266Z,5.70
2019-02-12T09:35:25.581Z,5.70
2019-02-12T09:36:49.465Z,5.70
2019-02-12T09:38:11.710Z,5.70
2019-02-12T09:39:39.980Z,5.70
2019-02-12T09:40:59.292Z,5.70
2019-02-12T09:42:35.272Z,5.80
2019-02-12T09:44:05.662Z,5.80
2019-02-12T09:45:34.133Z,5.80
2019-02-12T09:46:59.799Z,5.80
2019-02-12T09:48:09.901Z,5.80
2019-02-12T09:49:36.955Z,5.80
2019-02-12T09:50:47.227Z,5.80
2019-02-12T09:52:06.897Z,5.80
2019-02-12T09:53:20.609Z,5.80
2019-02-12T09:54:37.282Z,5.80
2019-02-12T09:55:50.163Z,5.80
2019-02-12T09:57:03.282Z,5.80
2019-02-12T09:58:25.890Z,5.80
2019-02-12T09:59:33.460Z,5.90
2019-02-12T10:00:41.002Z,5.90
2019-02-12T10:02:00.521Z,5.90
2019-02-12T10:03:23.055Z,5.90
2019-02-12T10:04:41.995Z,5.90
2019-02-12T10:06:01.553Z,5.90
2019-02-12T10:07:36.386Z,5.90
2019-02-12T10:08:58.602Z,5.90
2019-02-12T10:10:21.159Z,5.90
2019-02-12T10:11:48.209Z,5.90
2019-02-12T10:13:22.845Z,5.90
2019-02-12T10:14:33.263Z,5.90
2019-02-12T10:15:56.045Z,5.90
2019-02-12T10:17:26.217Z,5.90
2019-02-12T10:18:45.706Z,5.90
2019-02-12T10:19:53.273Z,5.90
2019-02-12T10:21:23.691Z,5.90
2019-02-12T10:22:31.226Z,5.90
2019-02-12T10:23:38.767Z,5.90
2019-02-12T10:24:55.055Z,5.90
2019-02-12T10:26:02.787Z,5.90
2019-02-12T10:27:28.262Z,5.90
2019-02-12T10:28:35.926Z,5.90
2019-02-12T10:30:04.299Z,6.00
2019-02-12T10:31:11.680Z,6.00
2019-02-12T10:32:15.093Z,6.00
2019-02-12T10:33:19.650Z,6.00
2019-02-12T10:34:24.105Z,6.00
2019-02-12T10:35:28.584Z,6.00
2019-02-12T10:36:33.033Z,6.10
2019-02-12T10:37:37.514Z,6.10
2019-02-12T10:38:42.099Z,6.10
2019-02-12T10:39:46.559Z,6.10
2019-02-12T10:40:51.047Z,6.10
2019-02-12T10:41:55.542Z,6.20
2019-02-12T10:43:00.046Z,6.20
2019-02-12T10:44:04.920Z,6.20
2019-02-12T10:45:09.718Z,6.30
2019-02-12T10:46:14.241Z,6.30
2019-02-12T10:47:18.715Z,6.30
2019-02-12T10:48:23.181Z,6.40
2019-02-12T10:49:27.668Z,6.40
2019-02-12T10:50:32.128Z,6.50
2019-02-12T10:51:36.894Z,6.50
2019-02-12T10:52:41.371Z,6.50
2019-02-12T10:53:45.840Z,6.60
2019-02-12T10:54:50.306Z,6.60
2019-02-12T10:55:54.783Z,6.60
2019-02-12T10:56:59.253Z,6.70
2019-02-12T10:58:03.814Z,6.70
2019-02-12T10:59:08.293Z,6.80
2019-02-12T11:00:14.083Z,6.80
2019-02-12T11:01:18.753Z,6.80
2019-02-12T11:02:23.289Z,6.90
2019-02-12T11:03:27.782Z,6.90
2019-02-12T11:04:32.331Z,6.90
2019-02-12T11:05:36.821Z,7.00
2019-02-12T11:06:41.351Z,7.00
2019-02-12T11:07:45.876Z,7.00
2019-02-12T11:08:50.357Z,7.00
2019-02-12T11:09:54.874Z,7.00
2019-02-12T11:10:59.408Z,7.00
2019-02-12T11:12:03.878Z,7.00
2019-02-12T11:13:08.325Z,7.00
2019-02-12T11:14:12.797Z,7.00
2019-02-12T11:15:17.247Z,7.00
2019-02-12T11:16:21.750Z,7.00
2019-02-12T11:17:26.302Z,7.00
2019-02-12T11:18:30.809Z,7.00
2019-02-12T11:19:35.272Z,7.00
2019-02-12T11:20:39.731Z,7.10
2019-02-12T11:21:44.242Z,7.10
2019-02-12T11:22:48.814Z,7.10
2019-02-12T11:23:53.290Z,7.10
2019-02-12T11:24:57.742Z,7.10
2019-02-12T11:26:02.261Z,7.20
2019-02-12T11:27:06.734Z,7.20
2019-02-12T11:28:11.204Z,7.20
2019-02-12T11:29:15.711Z,7.30
2019-02-12T11:30:20.215Z,7.30
2019-02-12T11:31:24.732Z,7.30
2019-02-12T11:32:29.203Z,7.30
2019-02-12T11:33:33.726Z,7.30
2019-02-12T11:34:38.175Z,7.40
2019-02-12T11:35:42.663Z,7.40
2019-02-12T11:36:47.225Z,7.40
2019-02-12T11:37:51.686Z,7.40
2019-02-12T11:38:56.159Z,7.40
2019-02-12T11:40:00.648Z,7.40
2019-02-12T11:41:05.177Z,7.50
2019-02-12T11:42:09.703Z,7.50
2019-02-12T11:43:14.258Z,7.50
2019-02-12T11:44:18.726Z,7.50
2019-02-12T11:45:23.197Z,7.50
2019-02-12T11:46:27.646Z,7.50
2019-02-12T11:47:32.102Z,7.50
2019-02-12T11:48:36.643Z,7.60
2019-02-12T11:49:41.105Z,7.60
2019-02-12T11:50:45.601Z,7.60
2019-02-12T11:51:50.141Z,7.60
2019-02-12T11:52:54.628Z,7.70
2019-02-12T11:53:59.114Z,7.70
2019-02-12T11:55:04.141Z,7.70
2019-02-12T11:56:08.749Z,7.70
2019-02-12T11:57:13.214Z,7.80
2019-02-12T11:58:17.675Z,7.80
2019-02-12T11:59:22.200Z,7.80
2019-02-12T12:00:28.351Z,7.90
2019-02-12T12:01:33.015Z,7.90
2019-02-12T12:02:42.110Z,7.90
2019-02-12T12:03:43.649Z,7.90
2019-02-12T12:04:48.123Z,8.00
2019-02-12T12:05:52.611Z,8.00
2019-02-12T12:06:57.082Z,8.00
2019-02-12T12:08:01.544Z,8.00
2019-02-12T12:09:06.453Z,7.90
2019-02-12T12:10:11.902Z,7.90
2019-02-12T12:11:16.360Z,7.90
2019-02-12T12:12:20.839Z,7.90
2019-02-12T12:13:25.367Z,7.80
2019-02-12T12:14:29.841Z,7.80
2019-02-12T12:15:34.331Z,7.80
2019-02-12T12:16:38.793Z,7.80
2019-02-12T12:17:43.431Z,7.70
2019-02-12T12:18:47.902Z,7.70
2019-02-12T12:19:52.345Z,7.70
2019-02-12T12:20:56.823Z,7.70
2019-02-12T12:22:01.298Z,7.70
2019-02-12T12:23:05.916Z,7.70
2019-02-12T12:24:10.440Z,7.70
2019-02-12T12:25:14.986Z,7.60
2019-02-12T12:26:19.595Z,7.60
2019-02-12T12:27:24.155Z,7.60
2019-02-12T12:28:28.765Z,7.60
2019-02-12T12:29:33.237Z,7.60
2019-02-12T12:30:39.377Z,7.60
2019-02-12T12:31:44.003Z,7.60
2019-02-12T12:32:48.497Z,7.60
2019-02-12T12:33:53.178Z,7.60
2019-02-12T12:34:59.164Z,7.60
2019-02-12T12:36:03.915Z,7.60
2019-02-12T12:37:08.525Z,7.60
2019-02-12T12:38:13.072Z,7.60
2019-02-12T12:39:17.665Z,7.50
2019-02-12T12:40:22.162Z,7.60
2019-02-12T12:41:26.692Z,7.60
2019-02-12T12:42:31.510Z,7.50
2019-02-12T12:43:35.991Z,7.50
2019-02-12T12:44:40.480Z,7.60
2019-02-12T12:45:44.948Z,7.50
2019-02-12T12:46:49.412Z,7.60
2019-02-12T12:47:53.905Z,7.60
2019-02-12T12:48:59.278Z,7.60
2019-02-12T12:50:06.265Z,7.60
2019-02-12T12:51:10.729Z,7.60
2019-02-12T12:52:15.195Z,7.60
2019-02-12T12:53:19.848Z,7.60
2019-02-12T12:54:24.481Z,7.60
2019-02-12T12:55:29.968Z,7.60
2019-02-12T12:56:34.507Z,7.60
2019-02-12T12:57:41.802Z,7.60
2019-02-12T12:58:45.206Z,7.50
2019-02-12T12:59:49.663Z,7.50
2019-02-12T13:00:54.296Z,7.50
2019-02-12T13:01:58.818Z,7.50
2019-02-12T13:03:03.297Z,7.50
2019-02-12T13:04:07.793Z,7.50
2019-02-12T13:05:12.485Z,7.50
2019-02-12T13:06:17.156Z,7.50
2019-02-12T13:07:21.611Z,7.50
2019-02-12T13:08:26.101Z,7.50
2019-02-12T13:09:30.628Z,7.50
2019-02-12T13:10:35.185Z,7.50
2019-02-12T13:11:39.647Z,7.50
2019-02-12T13:12:44.117Z,7.50
2019-02-12T13:13:48.582Z,7.50
2019-02-12T13:14:53.037Z,7.50
2019-02-12T13:15:57.539Z,7.50
2019-02-12T13:17:02.279Z,7.50
2019-02-12T13:18:06.748Z,7.50
2019-02-12T13:19:11.271Z,7.60
2019-02-12T13:20:19.934Z,7.60
2019-02-12T13:21:24.679Z,7.60
2019-02-12T13:22:29.167Z,7.60
2019-02-12T13:23:33.812Z,7.60
2019-02-12T13:24:38.271Z,7.70
2019-02-12T13:25:42.755Z,7.70
2019-02-12T13:26:47.243Z,7.80
2019-02-12T13:27:51.806Z,7.80
2019-02-12T13:28:56.292Z,7.80
2019-02-12T13:30:00.773Z,7.90
2019-02-12T13:31:05.285Z,8.00
2019-02-12T13:32:09.812Z,8.00
2019-02-12T13:33:14.287Z,8.10
2019-02-12T13:34:18.755Z,8.10
2019-02-12T13:35:23.237Z,8.10
2019-02-12T13:36:27.681Z,8.20
2019-02-12T13:37:32.375Z,8.20
2019-02-12T13:38:38.057Z,8.20
2019-02-12T13:39:42.639Z,8.30
2019-02-12T13:40:47.096Z,8.30
2019-02-12T13:41:51.565Z,8.30
2019-02-12T13:42:56.051Z,8.30
2019-02-12T13:44:00.515Z,8.30
2019-02-12T13:45:07.916Z,8.40
2019-02-12T13:46:12.472Z,8.40
2019-02-12T13:47:16.942Z,8.40
2019-02-12T13:48:21.410Z,8.40
2019-02-12T13:49:25.915Z,8.40
2019-02-12T13:50:30.349Z,8.40
2019-02-12T13:51:34.815Z,8.40
2019-02-12T13:52:39.331Z,8.40
2019-02-12T13:53:43.827Z,8.40
2019-02-12T13:54:48.273Z,8.40
2019-02-12T13:55:52.779Z,8.40
2019-02-12T13:56:57.224Z,8.30
2019-02-12T13:58:01.677Z,8.30
2019-02-12T13:59:06.145Z,8.30
2019-02-12T14:00:13.636Z,8.30
2019-02-12T14:01:18.102Z,8.30
2019-02-12T14:02:22.595Z,8.30
2019-02-12T14:03:27.084Z,8.30
2019-02-12T14:04:31.617Z,8.30
2019-02-12T14:05:36.124Z,8.30
2019-02-12T14:06:40.652Z,8.30
2019-02-12T14:07:45.326Z,8.20
2019-02-12T14:08:50.017Z,8.30
2019-02-12T14:09:54.493Z,8.20
2019-02-12T14:10:58.942Z,8.30
2019-02-12T14:12:03.413Z,8.20
2019-02-12T14:13:07.885Z,8.20
2019-02-12T14:14:12.461Z,8.20
2019-02-12T14:15:16.971Z,8.20
2019-02-12T14:16:21.431Z,8.20
2019-02-12T14:17:25.895Z,8.20
2019-02-12T14:18:30.413Z,8.20
2019-02-12T14:19:34.888Z,8.20
2019-02-12T14:20:39.359Z,8.20
2019-02-12T14:21:44.069Z,8.20
2019-02-12T14:22:48.558Z,8.20
2019-02-12T14:23:53.069Z,8.20
2019-02-12T14:24:57.584Z,8.20
2019-02-12T14:26:02.105Z,8.10
2019-02-12T14:27:06.622Z,8.10
2019-02-12T14:28:11.087Z,8.10
2019-02-12T14:29:15.741Z,8.10
2019-02-12T14:30:22.341Z,8.10
2019-02-12T14:31:26.883Z,8.10
2019-02-12T14:32:31.438Z,8.00
2019-02-12T14:33:35.926Z,8.00
2019-02-12T14:34:40.520Z,8.00
2019-02-12T14:35:44.992Z,8.00
2019-02-12T14:36:49.588Z,8.00
2019-02-12T14:37:54.078Z,7.90
2019-02-12T14:38:58.526Z,7.90
2019-02-12T14:40:03.077Z,7.90
2019-02-12T14:41:07.615Z,7.90
2019-02-12T14:42:12.301Z,7.90
2019-02-12T14:43:16.805Z,7.90
2019-02-12T14:44:21.273Z,7.90
2019-02-12T14:45:25.728Z,7.90
2019-02-12T14:46:30.211Z,7.90
2019-02-12T14:47:34.665Z,7.90
2019-02-12T14:48:39.155Z,7.90
2019-02-12T14:49:43.663Z,8.00
2019-02-12T14:50:48.124Z,8.00
2019-02-12T14:51:52.590Z,8.00
2019-02-12T14:52:57.378Z,8.10
2019-02-12T14:54:01.886Z,8.10
2019-02-12T14:55:06.651Z,8.10
2019-02-12T14:56:11.654Z,8.20
2019-02-12T14:57:16.310Z,8.20
2019-02-12T14:58:20.825Z,8.20
2019-02-12T14:59:25.416Z,8.20